sensor_id;sensor_type;location;lat;lon;timestamp;P1;durP1;ratioP1;P2;durP2;ratioP2
27223;SDS011;14965;50.660;13.226;2023-02-02T00:00:58;19.02;;;5.63;;
27223;SDS011;14965;50.660;13.226;2023-02-02T00:03:26;17.17;;;5.22;;
27223;SDS011;14965;50.660;13.226;2023-02-02T00:05:52;16.67;;;4.78;;
27223;SDS011;14965;50.660;13.226;2023-02-02T00:08:19;13.00;;;5.05;;
27223;SDS011;14965;50.660;13.226;2023-02-02T00:10:46;19.52;;;5.40;;
27223;SDS011;14965;50.660;13.226;2023-02-02T00:13:12;15.30;;;5.22;;
27223;SDS011;14965;50.660;13.226;2023-02-02T00:15:39;18.55;;;5.45;;
27223;SDS011;14965;50.660;13.226;2023-02-02T00:18:05;22.85;;;5.35;;
27223;SDS011;14965;50.660;13.226;2023-02-02T00:20:33;17.25;;;5.28;;
27223;SDS011;14965;50.660;13.226;2023-02-02T00:22:59;18.85;;;5.03;;
27223;SDS011;14965;50.660;13.226;2023-02-02T00:25:25;20.30;;;5.30;;
27223;SDS011;14965;50.660;13.226;2023-02-02T00:27:51;21.75;;;5.50;;
27223;SDS011;14965;50.660;13.226;2023-02-02T00:30:17;21.13;;;5.10;;
27223;SDS011;14965;50.660;13.226;2023-02-02T00:32:43;18.30;;;4.95;;
27223;SDS011;14965;50.660;13.226;2023-02-02T00:35:10;20.40;;;4.93;;
27223;SDS011;14965;50.660;13.226;2023-02-02T00:37:37;22.92;;;5.18;;
27223;SDS011;14965;50.660;13.226;2023-02-02T00:40:04;21.02;;;5.20;;
27223;SDS011;14965;50.660;13.226;2023-02-02T00:42:31;18.00;;;5.10;;
27223;SDS011;14965;50.660;13.226;2023-02-02T00:44:57;23.73;;;5.13;;
27223;SDS011;14965;50.660;13.226;2023-02-02T00:47:23;24.67;;;5.22;;
27223;SDS011;14965;50.660;13.226;2023-02-02T00:52:18;19.17;;;4.88;;
27223;SDS011;14965;50.660;13.226;2023-02-02T00:54:45;15.98;;;5.10;;
27223;SDS011;14965;50.660;13.226;2023-02-02T00:57:11;17.60;;;4.88;;
27223;SDS011;14965;50.660;13.226;2023-02-02T00:59:38;18.17;;;4.75;;
27223;SDS011;14965;50.660;13.226;2023-02-02T01:02:04;17.50;;;4.95;;
27223;SDS011;14965;50.660;13.226;2023-02-02T01:06:59;17.55;;;4.35;;
27223;SDS011;14965;50.660;13.226;2023-02-02T01:09:29;20.80;;;4.80;;
27223;SDS011;14965;50.660;13.226;2023-02-02T01:11:56;17.05;;;4.65;;
27223;SDS011;14965;50.660;13.226;2023-02-02T01:14:22;17.08;;;5.15;;
27223;SDS011;14965;50.660;13.226;2023-02-02T01:16:48;15.05;;;4.78;;
27223;SDS011;14965;50.660;13.226;2023-02-02T01:19:15;22.80;;;5.15;;
27223;SDS011;14965;50.660;13.226;2023-02-02T01:21:44;17.40;;;4.80;;
27223;SDS011;14965;50.660;13.226;2023-02-02T01:24:13;14.05;;;4.88;;
27223;SDS011;14965;50.660;13.226;2023-02-02T01:26:42;17.52;;;4.38;;
27223;SDS011;14965;50.660;13.226;2023-02-02T01:29:09;20.00;;;4.50;;
27223;SDS011;14965;50.660;13.226;2023-02-02T01:31:36;19.27;;;4.70;;
27223;SDS011;14965;50.660;13.226;2023-02-02T01:34:02;17.27;;;4.40;;
27223;SDS011;14965;50.660;13.226;2023-02-02T01:36:30;22.70;;;4.40;;
27223;SDS011;14965;50.660;13.226;2023-02-02T01:38:56;11.80;;;3.88;;
27223;SDS011;14965;50.660;13.226;2023-02-02T01:41:24;16.77;;;4.05;;
27223;SDS011;14965;50.660;13.226;2023-02-02T01:43:55;21.20;;;4.78;;
27223;SDS011;14965;50.660;13.226;2023-02-02T01:46:28;16.20;;;4.30;;
27223;SDS011;14965;50.660;13.226;2023-02-02T01:48:57;18.42;;;3.95;;
27223;SDS011;14965;50.660;13.226;2023-02-02T01:51:35;20.60;;;4.30;;
27223;SDS011;14965;50.660;13.226;2023-02-02T01:54:09;13.07;;;3.83;;
27223;SDS011;14965;50.660;13.226;2023-02-02T01:56:44;23.10;;;3.85;;
27223;SDS011;14965;50.660;13.226;2023-02-02T01:59:19;13.85;;;3.28;;
27223;SDS011;14965;50.660;13.226;2023-02-02T02:02:02;16.70;;;3.58;;
27223;SDS011;14965;50.660;13.226;2023-02-02T02:04:37;20.70;;;3.75;;
27223;SDS011;14965;50.660;13.226;2023-02-02T02:07:11;16.48;;;3.67;;
27223;SDS011;14965;50.660;13.226;2023-02-02T02:09:50;18.70;;;3.80;;
27223;SDS011;14965;50.660;13.226;2023-02-02T02:12:31;20.27;;;3.88;;
27223;SDS011;14965;50.660;13.226;2023-02-02T02:15:07;18.98;;;3.58;;
27223;SDS011;14965;50.660;13.226;2023-02-02T02:17:40;14.88;;;3.35;;
27223;SDS011;14965;50.660;13.226;2023-02-02T02:23:56;16.23;;;3.58;;
27223;SDS011;14965;50.660;13.226;2023-02-02T02:27:40;17.40;;;3.17;;
27223;SDS011;14965;50.660;13.226;2023-02-02T02:34:32;16.98;;;3.15;;
27223;SDS011;14965;50.660;13.226;2023-02-02T02:37:23;17.60;;;3.83;;
27223;SDS011;14965;50.660;13.226;2023-02-02T02:40:19;19.65;;;3.70;;
27223;SDS011;14965;50.660;13.226;2023-02-02T02:43:11;15.68;;;3.28;;
27223;SDS011;14965;50.660;13.226;2023-02-02T02:45:46;13.82;;;3.28;;
27223;SDS011;14965;50.660;13.226;2023-02-02T02:48:25;16.75;;;3.50;;
27223;SDS011;14965;50.660;13.226;2023-02-02T02:51:06;16.30;;;2.85;;
27223;SDS011;14965;50.660;13.226;2023-02-02T02:54:12;18.60;;;2.90;;
27223;SDS011;14965;50.660;13.226;2023-02-02T02:56:57;19.08;;;2.88;;
27223;SDS011;14965;50.660;13.226;2023-02-02T02:59:53;16.90;;;3.17;;
27223;SDS011;14965;50.660;13.226;2023-02-02T03:02:51;14.32;;;2.92;;
27223;SDS011;14965;50.660;13.226;2023-02-02T03:05:51;15.88;;;2.72;;
27223;SDS011;14965;50.660;13.226;2023-02-02T03:08:39;15.80;;;2.75;;
27223;SDS011;14965;50.660;13.226;2023-02-02T03:11:13;11.20;;;2.50;;
27223;SDS011;14965;50.660;13.226;2023-02-02T03:14:02;17.58;;;3.10;;
27223;SDS011;14965;50.660;13.226;2023-02-02T03:16:31;16.27;;;2.88;;
27223;SDS011;14965;50.660;13.226;2023-02-02T03:19:04;19.60;;;2.60;;
27223;SDS011;14965;50.660;13.226;2023-02-02T03:21:39;16.00;;;2.78;;
27223;SDS011;14965;50.660;13.226;2023-02-02T03:24:13;18.52;;;2.97;;
27223;SDS011;14965;50.660;13.226;2023-02-02T03:33:12;16.00;;;2.80;;
27223;SDS011;14965;50.660;13.226;2023-02-02T03:41:31;17.33;;;2.53;;
27223;SDS011;14965;50.660;13.226;2023-02-02T03:47:06;17.13;;;2.30;;
27223;SDS011;14965;50.660;13.226;2023-02-02T04:00:40;21.10;;;3.15;;
27223;SDS011;14965;50.660;13.226;2023-02-02T04:03:20;17.13;;;2.35;;
27223;SDS011;14965;50.660;13.226;2023-02-02T04:07:49;17.50;;;2.50;;
27223;SDS011;14965;50.660;13.226;2023-02-02T04:13:53;13.82;;;2.28;;
27223;SDS011;14965;50.660;13.226;2023-02-02T04:21:10;19.25;;;2.75;;
27223;SDS011;14965;50.660;13.226;2023-02-02T04:24:35;14.73;;;2.40;;
27223;SDS011;14965;50.660;13.226;2023-02-02T04:56:03;11.48;;;2.60;;
27223;SDS011;14965;50.660;13.226;2023-02-02T04:59:35;18.48;;;3.95;;
27223;SDS011;14965;50.660;13.226;2023-02-02T05:06:22;21.80;;;3.03;;
27223;SDS011;14965;50.660;13.226;2023-02-02T05:10:19;19.03;;;2.73;;
27223;SDS011;14965;50.660;13.226;2023-02-02T07:59:13;22.33;;;3.55;;
27223;SDS011;14965;50.660;13.226;2023-02-02T08:05:05;18.65;;;4.07;;
27223;SDS011;14965;50.660;13.226;2023-02-02T08:07:32;26.13;;;4.57;;
27223;SDS011;14965;50.660;13.226;2023-02-02T08:09:59;18.95;;;4.20;;
27223;SDS011;14965;50.660;13.226;2023-02-02T08:12:25;33.72;;;12.00;;
27223;SDS011;14965;50.660;13.226;2023-02-02T09:01:03;16.35;;;2.70;;
27223;SDS011;14965;50.660;13.226;2023-02-02T09:03:30;17.63;;;2.70;;
27223;SDS011;14965;50.660;13.226;2023-02-02T09:05:56;20.55;;;3.65;;
27223;SDS011;14965;50.660;13.226;2023-02-02T09:08:23;23.00;;;2.92;;
27223;SDS011;14965;50.660;13.226;2023-02-02T09:10:49;23.45;;;3.50;;
27223;SDS011;14965;50.660;13.226;2023-02-02T09:13:15;24.00;;;2.97;;
27223;SDS011;14965;50.660;13.226;2023-02-02T09:15:41;18.60;;;2.58;;
27223;SDS011;14965;50.660;13.226;2023-02-02T09:18:08;18.38;;;3.17;;
27223;SDS011;14965;50.660;13.226;2023-02-02T09:20:37;17.85;;;2.70;;
27223;SDS011;14965;50.660;13.226;2023-02-02T09:25:29;20.13;;;2.90;;
27223;SDS011;14965;50.660;13.226;2023-02-02T09:27:55;23.58;;;3.00;;
27223;SDS011;14965;50.660;13.226;2023-02-02T09:30:21;24.45;;;3.08;;
27223;SDS011;14965;50.660;13.226;2023-02-02T09:32:52;16.30;;;2.92;;
27223;SDS011;14965;50.660;13.226;2023-02-02T09:35:19;21.48;;;3.22;;
27223;SDS011;14965;50.660;13.226;2023-02-02T09:37:45;23.77;;;3.42;;
27223;SDS011;14965;50.660;13.226;2023-02-02T09:40:13;21.98;;;3.40;;
27223;SDS011;14965;50.660;13.226;2023-02-02T09:42:52;16.02;;;3.28;;
27223;SDS011;14965;50.660;13.226;2023-02-02T09:45:35;18.63;;;3.10;;
27223;SDS011;14965;50.660;13.226;2023-02-02T09:48:13;26.25;;;3.40;;
27223;SDS011;14965;50.660;13.226;2023-02-02T09:50:56;13.48;;;2.83;;
27223;SDS011;14965;50.660;13.226;2023-02-02T09:53:34;15.93;;;3.15;;
27223;SDS011;14965;50.660;13.226;2023-02-02T09:56:12;22.08;;;3.30;;
27223;SDS011;14965;50.660;13.226;2023-02-02T09:58:51;19.95;;;3.05;;
27223;SDS011;14965;50.660;13.226;2023-02-02T10:01:35;18.35;;;3.22;;
27223;SDS011;14965;50.660;13.226;2023-02-02T10:04:15;22.90;;;2.90;;
27223;SDS011;14965;50.660;13.226;2023-02-02T10:07:11;18.27;;;4.07;;
27223;SDS011;14965;50.660;13.226;2023-02-02T10:09:47;23.50;;;3.45;;
27223;SDS011;14965;50.660;13.226;2023-02-02T10:12:45;21.58;;;3.47;;
27223;SDS011;14965;50.660;13.226;2023-02-02T10:15:20;27.98;;;3.10;;
27223;SDS011;14965;50.660;13.226;2023-02-02T10:18:26;20.95;;;3.05;;
27223;SDS011;14965;50.660;13.226;2023-02-02T10:21:33;18.75;;;3.45;;
27223;SDS011;14965;50.660;13.226;2023-02-02T10:24:18;22.73;;;3.08;;
27223;SDS011;14965;50.660;13.226;2023-02-02T10:26:47;20.65;;;3.38;;
27223;SDS011;14965;50.660;13.226;2023-02-02T10:29:30;18.88;;;2.78;;
27223;SDS011;14965;50.660;13.226;2023-02-02T10:32:27;20.33;;;3.78;;
27223;SDS011;14965;50.660;13.226;2023-02-02T10:35:26;20.63;;;4.18;;
27223;SDS011;14965;50.660;13.226;2023-02-02T10:38:15;19.40;;;3.10;;
27223;SDS011;14965;50.660;13.226;2023-02-02T10:41:08;15.38;;;3.15;;
27223;SDS011;14965;50.660;13.226;2023-02-02T10:44:00;18.77;;;4.47;;
27223;SDS011;14965;50.660;13.226;2023-02-02T10:46:43;20.13;;;4.35;;
27223;SDS011;14965;50.660;13.226;2023-02-02T10:49:29;21.50;;;3.70;;
27223;SDS011;14965;50.660;13.226;2023-02-02T10:52:09;16.95;;;4.53;;
27223;SDS011;14965;50.660;13.226;2023-02-02T10:54:43;18.52;;;3.17;;
27223;SDS011;14965;50.660;13.226;2023-02-02T10:57:41;24.48;;;4.32;;
27223;SDS011;14965;50.660;13.226;2023-02-02T11:00:44;20.92;;;4.10;;
27223;SDS011;14965;50.660;13.226;2023-02-02T11:03:47;20.95;;;3.35;;
27223;SDS011;14965;50.660;13.226;2023-02-02T11:11:20;20.58;;;3.63;;
27223;SDS011;14965;50.660;13.226;2023-02-02T11:18:12;19.50;;;3.03;;
27223;SDS011;14965;50.660;13.226;2023-02-02T11:21:26;24.88;;;4.90;;
27223;SDS011;14965;50.660;13.226;2023-02-02T11:24:16;23.27;;;6.45;;
27223;SDS011;14965;50.660;13.226;2023-02-02T11:27:49;24.20;;;7.38;;
27223;SDS011;14965;50.660;13.226;2023-02-02T11:31:11;21.98;;;3.83;;
27223;SDS011;14965;50.660;13.226;2023-02-02T11:34:15;30.70;;;9.00;;
27223;SDS011;14965;50.660;13.226;2023-02-02T11:37:02;26.05;;;8.40;;
27223;SDS011;14965;50.660;13.226;2023-02-02T11:39:40;24.63;;;9.30;;
27223;SDS011;14965;50.660;13.226;2023-02-02T11:42:11;24.67;;;9.27;;
27223;SDS011;14965;50.660;13.226;2023-02-02T11:44:42;17.10;;;6.75;;
27223;SDS011;14965;50.660;13.226;2023-02-02T11:47:19;28.65;;;11.35;;
27223;SDS011;14965;50.660;13.226;2023-02-02T11:49:51;20.67;;;3.08;;
27223;SDS011;14965;50.660;13.226;2023-02-02T11:52:21;16.30;;;3.55;;
27223;SDS011;14965;50.660;13.226;2023-02-02T11:54:51;30.55;;;6.93;;
27223;SDS011;14965;50.660;13.226;2023-02-02T11:57:22;22.77;;;4.38;;
27223;SDS011;14965;50.660;13.226;2023-02-02T11:59:50;16.60;;;2.90;;
27223;SDS011;14965;50.660;13.226;2023-02-02T12:02:46;12.75;;;3.20;;
27223;SDS011;14965;50.660;13.226;2023-02-02T12:05:31;19.35;;;4.07;;
27223;SDS011;14965;50.660;13.226;2023-02-02T12:08:00;19.20;;;3.13;;
27223;SDS011;14965;50.660;13.226;2023-02-02T12:10:27;19.33;;;4.43;;
27223;SDS011;14965;50.660;13.226;2023-02-02T12:13:04;28.90;;;5.00;;
27223;SDS011;14965;50.660;13.226;2023-02-02T12:15:41;16.70;;;3.70;;
27223;SDS011;14965;50.660;13.226;2023-02-02T12:18:25;20.52;;;3.22;;
27223;SDS011;14965;50.660;13.226;2023-02-02T12:21:05;13.63;;;3.40;;
27223;SDS011;14965;50.660;13.226;2023-02-02T12:26:40;20.33;;;4.43;;
27223;SDS011;14965;50.660;13.226;2023-02-02T12:29:20;17.08;;;4.65;;
27223;SDS011;14965;50.660;13.226;2023-02-02T12:32:05;15.68;;;3.25;;
27223;SDS011;14965;50.660;13.226;2023-02-02T12:35:03;12.93;;;3.00;;
27223;SDS011;14965;50.660;13.226;2023-02-02T12:38:01;17.17;;;3.63;;
27223;SDS011;14965;50.660;13.226;2023-02-02T12:40:44;17.88;;;6.35;;
27223;SDS011;14965;50.660;13.226;2023-02-02T12:43:35;19.95;;;3.97;;
27223;SDS011;14965;50.660;13.226;2023-02-02T12:52:58;12.20;;;3.33;;
27223;SDS011;14965;50.660;13.226;2023-02-02T12:56:24;15.45;;;4.22;;
27223;SDS011;14965;50.660;13.226;2023-02-02T13:03:25;13.52;;;3.33;;
27223;SDS011;14965;50.660;13.226;2023-02-02T13:06:38;11.90;;;4.38;;
27223;SDS011;14965;50.660;13.226;2023-02-02T13:09:57;22.13;;;5.70;;
27223;SDS011;14965;50.660;13.226;2023-02-02T13:12:33;19.05;;;5.43;;
27223;SDS011;14965;50.660;13.226;2023-02-02T13:15:10;19.80;;;4.88;;
27223;SDS011;14965;50.660;13.226;2023-02-02T13:17:45;17.60;;;5.90;;
27223;SDS011;14965;50.660;13.226;2023-02-02T13:20:22;12.57;;;5.60;;
27223;SDS011;14965;50.660;13.226;2023-02-02T13:23:01;22.60;;;5.80;;
27223;SDS011;14965;50.660;13.226;2023-02-02T13:25:36;16.65;;;4.03;;
27223;SDS011;14965;50.660;13.226;2023-02-02T13:28:14;20.33;;;4.70;;
27223;SDS011;14965;50.660;13.226;2023-02-02T13:30:55;15.20;;;4.50;;
27223;SDS011;14965;50.660;13.226;2023-02-02T13:33:40;21.30;;;4.68;;
27223;SDS011;14965;50.660;13.226;2023-02-02T13:36:19;16.75;;;4.30;;
27223;SDS011;14965;50.660;13.226;2023-02-02T13:38:52;18.50;;;5.07;;
27223;SDS011;14965;50.660;13.226;2023-02-02T13:41:20;20.25;;;3.42;;
27223;SDS011;14965;50.660;13.226;2023-02-02T13:43:47;29.27;;;5.93;;
27223;SDS011;14965;50.660;13.226;2023-02-02T13:46:26;51.53;;;14.85;;
27223;SDS011;14965;50.660;13.226;2023-02-02T13:49:02;26.40;;;7.47;;
27223;SDS011;14965;50.660;13.226;2023-02-02T13:51:36;31.63;;;9.65;;
27223;SDS011;14965;50.660;13.226;2023-02-02T13:57:21;33.00;;;14.35;;
27223;SDS011;14965;50.660;13.226;2023-02-02T14:00:12;36.08;;;9.43;;
27223;SDS011;14965;50.660;13.226;2023-02-02T14:02:44;39.88;;;10.00;;
27223;SDS011;14965;50.660;13.226;2023-02-02T14:05:19;32.47;;;9.60;;
27223;SDS011;14965;50.660;13.226;2023-02-02T14:07:53;28.45;;;7.18;;
27223;SDS011;14965;50.660;13.226;2023-02-02T14:10:27;29.92;;;9.75;;
27223;SDS011;14965;50.660;13.226;2023-02-02T14:13:05;25.95;;;7.40;;
27223;SDS011;14965;50.660;13.226;2023-02-02T14:15:42;32.92;;;12.20;;
27223;SDS011;14965;50.660;13.226;2023-02-02T14:18:09;51.38;;;19.02;;
27223;SDS011;14965;50.660;13.226;2023-02-02T14:20:45;39.50;;;15.77;;
27223;SDS011;14965;50.660;13.226;2023-02-02T14:29:58;30.42;;;11.13;;
27223;SDS011;14965;50.660;13.226;2023-02-02T15:15:01;27.63;;;11.77;;
27223;SDS011;14965;50.660;13.226;2023-02-02T15:17:44;34.15;;;13.15;;
27223;SDS011;14965;50.660;13.226;2023-02-02T15:20:25;32.20;;;12.13;;
27223;SDS011;14965;50.660;13.226;2023-02-02T15:23:01;25.25;;;9.55;;
27223;SDS011;14965;50.660;13.226;2023-02-02T15:25:39;31.45;;;12.23;;
27223;SDS011;14965;50.660;13.226;2023-02-02T15:28:16;48.10;;;23.98;;
27223;SDS011;14965;50.660;13.226;2023-02-02T15:30:51;17.40;;;8.13;;
27223;SDS011;14965;50.660;13.226;2023-02-02T15:33:26;32.50;;;15.43;;
27223;SDS011;14965;50.660;13.226;2023-02-02T15:35:56;15.02;;;7.63;;
27223;SDS011;14965;50.660;13.226;2023-02-02T15:38:28;17.58;;;7.15;;
27223;SDS011;14965;50.660;13.226;2023-02-02T15:41:04;18.50;;;8.57;;
27223;SDS011;14965;50.660;13.226;2023-02-02T15:43:43;19.50;;;9.20;;
27223;SDS011;14965;50.660;13.226;2023-02-02T15:46:10;22.13;;;7.38;;
27223;SDS011;14965;50.660;13.226;2023-02-02T15:48:42;16.55;;;5.40;;
27223;SDS011;14965;50.660;13.226;2023-02-02T15:51:13;27.17;;;10.65;;
27223;SDS011;14965;50.660;13.226;2023-02-02T15:53:46;21.13;;;7.78;;
27223;SDS011;14965;50.660;13.226;2023-02-02T15:56:18;12.38;;;4.65;;
27223;SDS011;14965;50.660;13.226;2023-02-02T15:58:55;32.10;;;12.38;;
27223;SDS011;14965;50.660;13.226;2023-02-02T16:01:24;19.15;;;6.88;;
27223;SDS011;14965;50.660;13.226;2023-02-02T16:03:55;37.28;;;13.43;;
27223;SDS011;14965;50.660;13.226;2023-02-02T16:06:38;37.25;;;15.15;;
27223;SDS011;14965;50.660;13.226;2023-02-02T16:09:04;33.88;;;12.48;;
27223;SDS011;14965;50.660;13.226;2023-02-02T16:11:31;25.35;;;10.57;;
27223;SDS011;14965;50.660;13.226;2023-02-02T16:14:00;24.02;;;10.32;;
27223;SDS011;14965;50.660;13.226;2023-02-02T16:16:31;22.70;;;9.38;;
27223;SDS011;14965;50.660;13.226;2023-02-02T16:19:00;37.53;;;18.98;;
27223;SDS011;14965;50.660;13.226;2023-02-02T16:21:29;23.33;;;8.85;;
27223;SDS011;14965;50.660;13.226;2023-02-02T16:23:57;26.98;;;8.52;;
27223;SDS011;14965;50.660;13.226;2023-02-02T16:26:26;20.13;;;6.47;;
27223;SDS011;14965;50.660;13.226;2023-02-02T16:28:55;21.67;;;6.00;;
27223;SDS011;14965;50.660;13.226;2023-02-02T16:31:23;20.40;;;7.40;;
27223;SDS011;14965;50.660;13.226;2023-02-02T16:33:49;18.83;;;5.43;;
27223;SDS011;14965;50.660;13.226;2023-02-02T16:36:16;14.27;;;5.63;;
27223;SDS011;14965;50.660;13.226;2023-02-02T16:38:46;15.15;;;6.70;;
27223;SDS011;14965;50.660;13.226;2023-02-02T16:41:23;21.45;;;6.78;;
27223;SDS011;14965;50.660;13.226;2023-02-02T16:43:52;19.55;;;6.72;;
27223;SDS011;14965;50.660;13.226;2023-02-02T16:46:40;18.52;;;6.95;;
27223;SDS011;14965;50.660;13.226;2023-02-02T16:49:13;18.27;;;6.03;;
27223;SDS011;14965;50.660;13.226;2023-02-02T16:51:42;16.52;;;5.80;;
27223;SDS011;14965;50.660;13.226;2023-02-02T16:54:11;17.83;;;5.97;;
27223;SDS011;14965;50.660;13.226;2023-02-02T16:56:44;17.77;;;6.53;;
27223;SDS011;14965;50.660;13.226;2023-02-02T16:59:14;15.88;;;5.82;;
27223;SDS011;14965;50.660;13.226;2023-02-02T17:01:49;13.07;;;6.45;;
27223;SDS011;14965;50.660;13.226;2023-02-02T17:04:22;18.58;;;6.47;;
27223;SDS011;14965;50.660;13.226;2023-02-02T17:06:53;21.75;;;5.85;;
27223;SDS011;14965;50.660;13.226;2023-02-02T17:09:30;18.00;;;6.32;;
27223;SDS011;14965;50.660;13.226;2023-02-02T17:12:01;18.65;;;6.28;;
27223;SDS011;14965;50.660;13.226;2023-02-02T17:14:31;19.35;;;7.25;;
27223;SDS011;14965;50.660;13.226;2023-02-02T17:17:03;19.95;;;7.38;;
27223;SDS011;14965;50.660;13.226;2023-02-02T17:19:33;19.88;;;7.07;;
27223;SDS011;14965;50.660;13.226;2023-02-02T17:22:17;19.65;;;8.10;;
27223;SDS011;14965;50.660;13.226;2023-02-02T17:24:53;19.60;;;7.15;;
27223;SDS011;14965;50.660;13.226;2023-02-02T17:28:08;21.50;;;7.18;;
27223;SDS011;14965;50.660;13.226;2023-02-02T17:31:20;17.63;;;6.93;;
27223;SDS011;14965;50.660;13.226;2023-02-02T18:08:29;22.00;;;7.90;;
27223;SDS011;14965;50.660;13.226;2023-02-02T18:10:57;21.27;;;9.68;;
27223;SDS011;14965;50.660;13.226;2023-02-02T18:13:25;18.63;;;8.50;;
27223;SDS011;14965;50.660;13.226;2023-02-02T18:15:52;20.15;;;9.23;;
27223;SDS011;14965;50.660;13.226;2023-02-02T18:18:19;17.85;;;8.85;;
27223;SDS011;14965;50.660;13.226;2023-02-02T18:20:45;17.33;;;7.82;;
27223;SDS011;14965;50.660;13.226;2023-02-02T18:23:14;20.15;;;8.82;;
27223;SDS011;14965;50.660;13.226;2023-02-02T18:25:43;23.13;;;8.75;;
27223;SDS011;14965;50.660;13.226;2023-02-02T18:28:09;18.63;;;8.48;;
27223;SDS011;14965;50.660;13.226;2023-02-02T18:30:36;22.88;;;8.80;;
27223;SDS011;14965;50.660;13.226;2023-02-02T18:33:02;17.75;;;8.20;;
27223;SDS011;14965;50.660;13.226;2023-02-02T18:35:31;23.13;;;8.93;;
27223;SDS011;14965;50.660;13.226;2023-02-02T18:37:58;26.52;;;8.57;;
27223;SDS011;14965;50.660;13.226;2023-02-02T18:40:27;21.85;;;8.65;;
27223;SDS011;14965;50.660;13.226;2023-02-02T18:42:57;21.80;;;8.00;;
27223;SDS011;14965;50.660;13.226;2023-02-02T18:45:28;17.98;;;7.50;;
27223;SDS011;14965;50.660;13.226;2023-02-02T18:50:22;23.13;;;7.90;;
27223;SDS011;14965;50.660;13.226;2023-02-02T18:52:54;23.65;;;8.73;;
27223;SDS011;14965;50.660;13.226;2023-02-02T18:55:23;20.83;;;8.48;;
27223;SDS011;14965;50.660;13.226;2023-02-02T18:57:56;25.23;;;8.63;;
27223;SDS011;14965;50.660;13.226;2023-02-02T19:00:22;20.42;;;8.75;;
27223;SDS011;14965;50.660;13.226;2023-02-02T19:02:48;28.88;;;8.55;;
27223;SDS011;14965;50.660;13.226;2023-02-02T19:05:15;22.17;;;9.38;;
27223;SDS011;14965;50.660;13.226;2023-02-02T19:07:47;26.65;;;9.63;;
27223;SDS011;14965;50.660;13.226;2023-02-02T19:10:18;23.65;;;9.13;;
27223;SDS011;14965;50.660;13.226;2023-02-02T19:12:49;22.27;;;7.85;;
27223;SDS011;14965;50.660;13.226;2023-02-02T19:15:23;24.80;;;8.10;;
27223;SDS011;14965;50.660;13.226;2023-02-02T19:17:52;27.52;;;8.77;;
27223;SDS011;14965;50.660;13.226;2023-02-02T19:20:23;30.80;;;9.30;;
27223;SDS011;14965;50.660;13.226;2023-02-02T19:22:58;20.05;;;9.32;;
27223;SDS011;14965;50.660;13.226;2023-02-02T19:25:31;21.85;;;9.75;;
27223;SDS011;14965;50.660;13.226;2023-02-02T19:30:32;33.72;;;10.07;;
27223;SDS011;14965;50.660;13.226;2023-02-02T19:33:01;25.90;;;8.80;;
27223;SDS011;14965;50.660;13.226;2023-02-02T19:35:34;29.80;;;7.68;;
27223;SDS011;14965;50.660;13.226;2023-02-02T19:38:08;42.75;;;12.32;;
27223;SDS011;14965;50.660;13.226;2023-02-02T19:40:38;50.97;;;16.13;;
27223;SDS011;14965;50.660;13.226;2023-02-02T19:43:07;42.30;;;15.73;;
27223;SDS011;14965;50.660;13.226;2023-02-02T19:45:50;33.33;;;11.20;;
27223;SDS011;14965;50.660;13.226;2023-02-02T19:48:22;29.70;;;9.95;;
27223;SDS011;14965;50.660;13.226;2023-02-02T19:50:51;25.45;;;9.45;;
27223;SDS011;14965;50.660;13.226;2023-02-02T19:53:20;26.48;;;10.45;;
27223;SDS011;14965;50.660;13.226;2023-02-02T19:55:48;24.23;;;8.85;;
27223;SDS011;14965;50.660;13.226;2023-02-02T19:58:18;20.80;;;8.40;;
27223;SDS011;14965;50.660;13.226;2023-02-02T20:00:51;27.40;;;10.30;;
27223;SDS011;14965;50.660;13.226;2023-02-02T20:03:23;22.15;;;7.95;;
27223;SDS011;14965;50.660;13.226;2023-02-02T20:05:52;23.38;;;9.30;;
27223;SDS011;14965;50.660;13.226;2023-02-02T20:08:22;34.25;;;10.75;;
27223;SDS011;14965;50.660;13.226;2023-02-02T20:11:05;28.10;;;10.00;;
27223;SDS011;14965;50.660;13.226;2023-02-02T20:13:50;31.37;;;9.90;;
27223;SDS011;14965;50.660;13.226;2023-02-02T20:16:21;20.45;;;8.60;;
27223;SDS011;14965;50.660;13.226;2023-02-02T20:18:53;21.08;;;9.02;;
27223;SDS011;14965;50.660;13.226;2023-02-02T20:21:33;19.40;;;7.53;;
27223;SDS011;14965;50.660;13.226;2023-02-02T20:24:09;30.73;;;9.88;;
27223;SDS011;14965;50.660;13.226;2023-02-02T20:26:43;40.78;;;11.23;;
27223;SDS011;14965;50.660;13.226;2023-02-02T20:29:15;39.55;;;11.90;;
27223;SDS011;14965;50.660;13.226;2023-02-02T20:31:52;26.83;;;9.35;;
27223;SDS011;14965;50.660;13.226;2023-02-02T20:34:43;22.80;;;8.27;;
27223;SDS011;14965;50.660;13.226;2023-02-02T20:39:54;43.60;;;13.88;;
27223;SDS011;14965;50.660;13.226;2023-02-02T20:42:31;41.67;;;10.65;;
27223;SDS011;14965;50.660;13.226;2023-02-02T20:45:00;23.05;;;7.70;;
27223;SDS011;14965;50.660;13.226;2023-02-02T20:47:36;23.08;;;8.55;;
27223;SDS011;14965;50.660;13.226;2023-02-02T20:50:09;24.05;;;7.68;;
27223;SDS011;14965;50.660;13.226;2023-02-02T20:52:44;28.27;;;9.27;;
27223;SDS011;14965;50.660;13.226;2023-02-02T20:55:43;42.47;;;14.00;;
27223;SDS011;14965;50.660;13.226;2023-02-02T20:58:36;28.58;;;9.82;;
27223;SDS011;14965;50.660;13.226;2023-02-02T21:01:10;22.25;;;8.23;;
27223;SDS011;14965;50.660;13.226;2023-02-02T21:03:53;23.38;;;7.38;;
27223;SDS011;14965;50.660;13.226;2023-02-02T21:06:28;29.85;;;7.43;;
27223;SDS011;14965;50.660;13.226;2023-02-02T21:09:16;28.60;;;7.90;;
27223;SDS011;14965;50.660;13.226;2023-02-02T21:11:52;27.60;;;8.65;;
27223;SDS011;14965;50.660;13.226;2023-02-02T21:14:34;21.75;;;7.97;;
27223;SDS011;14965;50.660;13.226;2023-02-02T21:17:26;25.50;;;8.48;;
27223;SDS011;14965;50.660;13.226;2023-02-02T21:20:24;20.05;;;7.25;;
27223;SDS011;14965;50.660;13.226;2023-02-02T21:23:07;28.38;;;8.38;;
27223;SDS011;14965;50.660;13.226;2023-02-02T21:25:43;26.58;;;8.82;;
27223;SDS011;14965;50.660;13.226;2023-02-02T21:28:18;23.08;;;8.18;;
27223;SDS011;14965;50.660;13.226;2023-02-02T21:30:50;23.85;;;8.27;;
27223;SDS011;14965;50.660;13.226;2023-02-02T21:33:24;24.00;;;8.57;;
27223;SDS011;14965;50.660;13.226;2023-02-02T21:36:00;21.77;;;8.77;;
27223;SDS011;14965;50.660;13.226;2023-02-02T21:38:49;26.23;;;9.43;;
27223;SDS011;14965;50.660;13.226;2023-02-02T21:41:23;32.72;;;9.35;;
27223;SDS011;14965;50.660;13.226;2023-02-02T21:44:07;23.35;;;8.80;;
27223;SDS011;14965;50.660;13.226;2023-02-02T21:46:38;28.25;;;9.98;;
27223;SDS011;14965;50.660;13.226;2023-02-02T21:49:11;23.23;;;9.45;;
27223;SDS011;14965;50.660;13.226;2023-02-02T21:51:47;21.10;;;8.77;;
27223;SDS011;14965;50.660;13.226;2023-02-02T21:54:19;27.10;;;9.10;;
27223;SDS011;14965;50.660;13.226;2023-02-02T21:59:20;22.45;;;7.15;;
27223;SDS011;14965;50.660;13.226;2023-02-02T22:01:57;19.50;;;7.47;;
27223;SDS011;14965;50.660;13.226;2023-02-02T22:04:58;25.33;;;6.93;;
27223;SDS011;14965;50.660;13.226;2023-02-02T22:07:31;20.02;;;7.28;;
27223;SDS011;14965;50.660;13.226;2023-02-02T22:10:08;19.05;;;8.23;;
27223;SDS011;14965;50.660;13.226;2023-02-02T22:12:57;22.63;;;8.13;;
27223;SDS011;14965;50.660;13.226;2023-02-02T22:15:40;19.73;;;7.75;;
27223;SDS011;14965;50.660;13.226;2023-02-02T22:18:11;21.40;;;7.50;;